SKLT/LET METAR and TAF weather

Enter ICAO airport designator
Station Type Date Time Source
SKLT METAR 2019/12/09 22:00 UTC NOAA

SKLT 092200Z 09003KT 9999 FEW020TCU 30/25 A2969 RMK TCU/SE


Station Type Date Time Source
SKLT Decoded METAR 2019/12/09 22:00 UTC NOAA

Leticia / Vasquez Cobo, Colombia (SKLT) 04-10S 069-57W 84M
Dec 09, 2019 - 05:00 PM EST / 2019.12.09 2200 UTC
Wind: from the E (090 degrees) at 3 MPH (3 KT):0
Visibility: greater than 7 mile(s):0
Sky conditions: mostly clear
Weather: Towering cumulus clouds observed
Temperature: 86 F (30 C)
Heat index: 96.8 F (36.0 C):1
Dew Point: 77 F (25 C)
Relative Humidity: 74%
Pressure (altimeter): 29.69 in. Hg (1005 hPa)
ob: SKLT 092200Z 09003KT 9999 FEW020TCU 30/25 A2969 RMK TCU/SE
cycle: 22

Station Type Date Time Source
SKLT TAF 2019/12/09 18:48 UTC NOAA

TAF SKLT 091630Z 0918/1018 26006KT 9999 SCT017 SCT090
TEMPO 0920/0923 5000 TSRA SCT015CB
BECMG 0923/1001 VRB02KT
TEMPO 1009/1012 3000 BR -DZ SCT010 TX33/0919Z TN22/1011Z

Example: see airport list